createdAt,value
2022-08-30T00:01:24.462Z,0.90
2022-08-30T00:03:51.775Z,1.00
2022-08-30T00:06:20.322Z,1.00
2022-08-30T00:08:48.371Z,1.00
2022-08-30T00:11:22.402Z,0.98
2022-08-30T00:13:51.010Z,0.95
2022-08-30T00:16:19.171Z,1.10
2022-08-30T00:18:45.978Z,0.90
2022-08-30T00:21:12.337Z,0.80
2022-08-30T00:23:39.502Z,1.00
2022-08-30T00:26:06.585Z,1.10
2022-08-30T00:28:33.674Z,1.00
2022-08-30T00:31:01.971Z,1.00
2022-08-30T00:33:28.977Z,0.90
2022-08-30T00:35:55.701Z,1.23
2022-08-30T00:38:23.132Z,1.00
2022-08-30T00:40:50.032Z,0.90
2022-08-30T00:43:23.190Z,1.00
2022-08-30T00:45:51.374Z,0.93
2022-08-30T00:48:17.688Z,1.10
2022-08-30T00:50:50.762Z,1.00
2022-08-30T00:53:22.425Z,0.80
2022-08-30T00:55:49.812Z,0.88
2022-08-30T00:58:24.069Z,0.77
2022-08-30T01:00:54.389Z,1.00
2022-08-30T01:03:21.766Z,1.20
2022-08-30T01:05:50.902Z,0.80
2022-08-30T01:08:19.754Z,0.90
2022-08-30T01:10:45.909Z,0.90
2022-08-30T01:13:13.440Z,0.82
2022-08-30T01:15:42.080Z,1.10
2022-08-30T01:18:09.478Z,0.95
2022-08-30T01:20:46.283Z,0.85
2022-08-30T01:23:18.342Z,0.77
2022-08-30T01:25:47.323Z,0.80
2022-08-30T01:28:18.642Z,0.95
2022-08-30T01:30:45.235Z,1.20
2022-08-30T01:33:12.282Z,0.75
2022-08-30T01:35:52.250Z,0.65
2022-08-30T01:38:21.710Z,0.95
2022-08-30T01:40:48.810Z,0.68
2022-08-30T01:43:16.262Z,0.90
2022-08-30T01:45:42.595Z,0.93
2022-08-30T01:48:12.101Z,0.80
2022-08-30T01:50:40.702Z,0.77
2022-08-30T01:53:08.626Z,0.85
2022-08-30T01:55:39.687Z,0.80
2022-08-30T01:58:05.857Z,0.80
2022-08-30T02:00:31.965Z,0.90
2022-08-30T02:02:58.227Z,0.85
2022-08-30T02:05:25.226Z,0.80
2022-08-30T02:07:51.520Z,1.00
2022-08-30T02:10:17.671Z,0.80
2022-08-30T02:12:43.826Z,0.77
2022-08-30T02:15:09.921Z,0.90
2022-08-30T02:17:36.368Z,1.00
2022-08-30T02:20:03.361Z,0.93
2022-08-30T02:22:29.491Z,1.15
2022-08-30T02:24:55.647Z,1.00
2022-08-30T02:27:22.047Z,0.85
2022-08-30T02:29:48.191Z,0.68
2022-08-30T02:32:14.499Z,0.95
2022-08-30T02:34:40.601Z,0.90
2022-08-30T02:37:06.794Z,0.90
2022-08-30T02:39:32.902Z,0.88
2022-08-30T02:41:59.009Z,0.80
2022-08-30T02:44:25.106Z,0.80
2022-08-30T02:46:51.209Z,0.73
2022-08-30T02:49:33.142Z,0.85
2022-08-30T02:52:01.365Z,0.68
2022-08-30T02:54:27.722Z,0.82
2022-08-30T02:56:54.069Z,0.80
2022-08-30T02:59:20.352Z,0.80
2022-08-30T03:01:46.515Z,0.60
2022-08-30T03:04:12.686Z,0.90
2022-08-30T03:06:38.787Z,1.00
2022-08-30T03:09:05.167Z,0.90
2022-08-30T03:11:31.299Z,0.90
2022-08-30T03:13:57.926Z,0.80
2022-08-30T03:16:24.134Z,0.77
2022-08-30T03:18:50.288Z,0.57
2022-08-30T03:21:16.905Z,0.80
2022-08-30T03:23:43.815Z,0.82
2022-08-30T03:26:12.527Z,0.70
2022-08-30T03:28:38.858Z,0.82
2022-08-30T03:31:05.123Z,0.70
2022-08-30T03:33:31.223Z,0.90
2022-08-30T03:35:57.846Z,0.80
2022-08-30T03:38:23.991Z,0.80
2022-08-30T03:40:50.126Z,0.93
2022-08-30T03:43:17.119Z,0.70
2022-08-30T03:45:44.193Z,0.95
2022-08-30T03:48:10.389Z,0.90
2022-08-30T03:50:36.586Z,0.77
2022-08-30T03:53:03.132Z,0.65
2022-08-30T03:55:30.060Z,0.95
2022-08-30T03:57:56.630Z,0.77
2022-08-30T04:00:24.763Z,0.80
2022-08-30T04:02:50.863Z,0.73
2022-08-30T04:05:18.577Z,0.90
2022-08-30T04:07:45.214Z,0.90
2022-08-30T04:10:11.449Z,0.93
2022-08-30T04:12:38.730Z,0.90
2022-08-30T04:15:05.625Z,1.17
2022-08-30T04:17:31.967Z,0.90
2022-08-30T04:19:58.150Z,1.08
2022-08-30T04:22:24.303Z,1.08
2022-08-30T04:24:50.427Z,1.08
2022-08-30T04:27:19.597Z,0.80
2022-08-30T04:29:47.003Z,1.00
2022-08-30T04:32:14.067Z,0.90
2022-08-30T04:34:40.228Z,0.90
2022-08-30T04:37:06.498Z,0.80
2022-08-30T04:39:36.077Z,0.98
2022-08-30T04:42:02.792Z,1.00
2022-08-30T04:44:29.013Z,1.10
2022-08-30T04:46:55.188Z,1.00
2022-08-30T04:49:22.229Z,1.10
2022-08-30T04:51:48.508Z,1.00
2022-08-30T04:54:14.600Z,1.05
2022-08-30T04:56:40.713Z,1.20
2022-08-30T04:59:06.806Z,1.23
2022-08-30T05:01:44.562Z,0.80
2022-08-30T05:04:12.927Z,1.00
2022-08-30T05:06:39.014Z,0.70
2022-08-30T05:09:05.294Z,1.00
2022-08-30T05:11:31.379Z,1.10
2022-08-30T05:13:57.773Z,1.08
2022-08-30T05:16:23.961Z,0.85
2022-08-30T05:18:51.233Z,1.10
2022-08-30T05:21:26.029Z,0.80
2022-08-30T05:23:57.791Z,1.00
2022-08-30T05:26:27.235Z,0.90
2022-08-30T05:28:53.804Z,1.00
2022-08-30T05:31:25.685Z,0.82
2022-08-30T05:33:53.326Z,0.88
2022-08-30T05:36:22.013Z,1.10
2022-08-30T05:38:48.197Z,1.08
2022-08-30T05:41:14.818Z,0.90
2022-08-30T05:43:41.722Z,1.08
2022-08-30T05:46:12.822Z,1.48
2022-08-30T05:48:40.041Z,1.40
2022-08-30T05:51:12.697Z,1.20
2022-08-30T05:53:39.744Z,1.67
2022-08-30T05:56:08.441Z,1.50
2022-08-30T05:58:35.449Z,1.70
2022-08-30T06:01:02.117Z,1.90
2022-08-30T06:03:28.763Z,2.20
2022-08-30T06:05:54.934Z,2.25
2022-08-30T06:08:21.899Z,2.22
2022-08-30T06:10:48.090Z,2.10
2022-08-30T06:13:14.598Z,2.05
2022-08-30T06:15:43.224Z,2.40
2022-08-30T06:18:09.348Z,2.08
2022-08-30T06:20:40.652Z,2.00
2022-08-30T06:23:06.756Z,2.17
2022-08-30T06:25:41.346Z,2.53
2022-08-30T06:28:09.320Z,2.20
2022-08-30T06:30:35.665Z,2.65
2022-08-30T06:33:01.988Z,3.05
2022-08-30T06:35:28.690Z,2.63
2022-08-30T06:37:55.309Z,2.55
2022-08-30T06:40:22.212Z,2.90
2022-08-30T06:42:48.732Z,3.35
2022-08-30T06:45:15.790Z,2.60
2022-08-30T06:47:42.334Z,2.50
2022-08-30T06:50:12.426Z,2.75
2022-08-30T06:52:40.250Z,2.90
2022-08-30T06:55:06.648Z,2.95
2022-08-30T06:57:32.808Z,3.08
2022-08-30T06:59:58.997Z,2.97
2022-08-30T07:02:25.643Z,2.60
2022-08-30T07:04:52.008Z,2.40
2022-08-30T07:07:18.109Z,2.70
2022-08-30T07:09:44.263Z,2.95
2022-08-30T07:12:11.373Z,3.13
2022-08-30T07:14:38.595Z,2.75
2022-08-30T07:17:25.301Z,2.83
2022-08-30T07:19:51.531Z,2.97
2022-08-30T07:22:17.693Z,3.00
2022-08-30T07:24:43.873Z,3.10
2022-08-30T07:27:09.994Z,2.47
2022-08-30T07:29:36.602Z,3.30
2022-08-30T07:32:02.992Z,3.05
2022-08-30T07:34:29.082Z,3.05
2022-08-30T07:36:55.229Z,3.40
2022-08-30T07:39:21.666Z,2.95
2022-08-30T07:41:48.193Z,3.13
2022-08-30T07:44:14.562Z,3.00
2022-08-30T07:46:41.062Z,3.10
2022-08-30T07:49:11.282Z,3.00
2022-08-30T07:51:39.110Z,2.95
2022-08-30T07:54:06.365Z,3.15
2022-08-30T07:56:32.494Z,2.78
2022-08-30T07:58:58.639Z,2.80
2022-08-30T08:01:24.853Z,2.70
2022-08-30T08:03:51.324Z,2.50
2022-08-30T08:06:19.966Z,2.78
2022-08-30T08:08:46.766Z,2.70
2022-08-30T08:11:16.205Z,3.00
2022-08-30T08:13:50.629Z,2.88
2022-08-30T08:16:21.503Z,2.40
2022-08-30T08:18:47.669Z,2.50
2022-08-30T08:21:13.772Z,2.70
2022-08-30T08:23:39.889Z,2.35
2022-08-30T08:26:06.203Z,2.08
2022-08-30T08:28:32.321Z,2.30
2022-08-30T08:30:58.569Z,2.10
2022-08-30T08:33:24.717Z,2.25
2022-08-30T08:35:50.823Z,2.15
2022-08-30T08:38:17.070Z,1.88
2022-08-30T08:41:02.680Z,2.15
2022-08-30T08:43:33.703Z,2.00
2022-08-30T08:46:11.777Z,1.88
2022-08-30T08:48:59.865Z,1.90
2022-08-30T08:51:49.620Z,1.63
2022-08-30T08:54:48.045Z,2.00
2022-08-30T08:57:16.604Z,1.90
2022-08-30T08:59:44.707Z,1.40
2022-08-30T09:02:27.891Z,1.70
2022-08-30T09:05:01.233Z,1.60
2022-08-30T09:07:32.059Z,1.67
2022-08-30T09:09:59.959Z,1.30
2022-08-30T09:12:27.134Z,1.40
2022-08-30T09:14:58.194Z,1.40
2022-08-30T09:17:25.310Z,1.45
2022-08-30T09:19:51.358Z,1.23
2022-08-30T09:22:33.845Z,1.60
2022-08-30T09:25:05.736Z,1.50
2022-08-30T09:27:52.201Z,1.60
2022-08-30T09:30:27.686Z,1.48
2022-08-30T09:32:54.791Z,1.60
2022-08-30T09:35:25.744Z,1.42
2022-08-30T09:38:02.661Z,1.48
2022-08-30T09:40:54.509Z,1.98
2022-08-30T09:43:23.862Z,1.70
2022-08-30T09:46:00.792Z,1.98
2022-08-30T09:48:39.968Z,1.73
2022-08-30T09:51:34.673Z,2.22
2022-08-30T09:54:18.494Z,2.20
2022-08-30T09:56:56.566Z,2.15
2022-08-30T09:59:40.883Z,2.35
2022-08-30T10:02:21.677Z,2.00
2022-08-30T10:05:25.365Z,2.28
2022-08-30T10:07:56.395Z,2.72
2022-08-30T10:10:52.042Z,2.47
2022-08-30T10:13:37.858Z,2.13
2022-08-30T10:16:26.657Z,2.28
2022-08-30T10:19:21.187Z,2.58
2022-08-30T10:21:57.516Z,2.30
2022-08-30T10:24:35.142Z,1.95
2022-08-30T10:27:10.542Z,2.40
2022-08-30T10:30:06.986Z,2.35
2022-08-30T10:32:45.919Z,2.40
2022-08-30T10:35:27.849Z,2.08
2022-08-30T10:38:03.014Z,2.17
2022-08-30T10:40:53.794Z,2.10
2022-08-30T10:43:57.471Z,1.90
2022-08-30T10:46:44.190Z,2.17
2022-08-30T10:49:19.062Z,2.05
2022-08-30T10:52:30.506Z,2.10
2022-08-30T10:55:05.481Z,1.98
2022-08-30T10:57:32.185Z,1.80
2022-08-30T11:00:05.814Z,1.65
2022-08-30T11:02:54.199Z,1.70
2022-08-30T11:05:23.118Z,1.60
2022-08-30T11:08:24.210Z,1.70
2022-08-30T11:11:05.908Z,1.55
2022-08-30T11:13:40.819Z,1.60
2022-08-30T11:16:14.643Z,1.80
2022-08-30T11:18:52.087Z,1.90
2022-08-30T11:21:40.964Z,1.80
2022-08-30T11:24:12.149Z,1.80
2022-08-30T11:26:45.260Z,1.38
2022-08-30T11:29:29.377Z,1.50
2022-08-30T11:32:04.327Z,1.38
2022-08-30T11:34:46.682Z,1.52
2022-08-30T11:37:42.824Z,1.60
2022-08-30T11:40:47.578Z,1.70
2022-08-30T11:43:46.532Z,1.70
2022-08-30T11:46:27.852Z,1.27
2022-08-30T11:49:45.337Z,1.48
2022-08-30T11:52:40.377Z,1.60
2022-08-30T11:55:25.915Z,1.40
2022-08-30T11:58:05.020Z,1.60
2022-08-30T12:00:41.084Z,1.70
2022-08-30T12:03:18.953Z,1.52
2022-08-30T12:05:58.906Z,1.73
2022-08-30T12:08:33.409Z,1.50
2022-08-30T12:11:27.722Z,1.98
2022-08-30T12:13:55.484Z,1.80
2022-08-30T12:17:02.713Z,1.75
2022-08-30T12:19:31.130Z,1.75
2022-08-30T12:21:59.802Z,1.55
2022-08-30T12:24:39.593Z,1.80
2022-08-30T12:27:32.556Z,2.08
2022-08-30T12:30:06.323Z,1.70
2022-08-30T12:32:32.603Z,1.70
2022-08-30T12:35:02.485Z,1.60
2022-08-30T12:37:42.227Z,1.65
2022-08-30T12:40:20.991Z,1.95
2022-08-30T12:42:56.810Z,1.80
2022-08-30T12:45:39.282Z,1.77
2022-08-30T12:48:10.385Z,2.03
2022-08-30T12:50:51.145Z,1.90
2022-08-30T12:53:27.175Z,1.70
2022-08-30T12:55:58.796Z,1.70
2022-08-30T12:58:52.118Z,1.60
2022-08-30T13:01:27.575Z,1.67
2022-08-30T13:03:57.094Z,2.10
2022-08-30T13:06:43.115Z,1.90
2022-08-30T13:09:21.341Z,1.50
2022-08-30T13:11:49.729Z,1.88
2022-08-30T13:14:24.658Z,1.80
2022-08-30T13:17:05.430Z,2.00
2022-08-30T13:19:35.983Z,2.20
2022-08-30T13:22:03.329Z,1.90
2022-08-30T13:24:29.645Z,1.65
2022-08-30T13:27:05.915Z,1.40
2022-08-30T13:29:32.345Z,1.70
2022-08-30T13:31:58.518Z,1.73
2022-08-30T13:34:24.751Z,1.90
2022-08-30T13:36:56.550Z,1.75
2022-08-30T13:39:22.869Z,1.80
2022-08-30T13:41:50.165Z,1.80
2022-08-30T13:44:17.939Z,2.05
2022-08-30T13:46:54.492Z,2.15
2022-08-30T13:49:43.864Z,1.80
2022-08-30T13:52:20.348Z,2.00
2022-08-30T13:54:54.278Z,1.88
2022-08-30T14:00:18.412Z,1.77
2022-08-30T14:02:51.603Z,1.70
2022-08-30T14:05:48.325Z,1.80
2022-08-30T14:11:05.151Z,1.73
2022-08-30T14:13:31.502Z,1.75
2022-08-30T14:18:46.579Z,1.40
2022-08-30T14:21:12.761Z,1.50
2022-08-30T14:23:38.875Z,1.90
2022-08-30T14:26:11.349Z,1.90
2022-08-30T14:28:37.690Z,1.63
2022-08-30T14:31:04.531Z,2.00
2022-08-30T14:33:32.987Z,1.90
2022-08-30T14:35:59.585Z,1.98
2022-08-30T14:38:25.741Z,2.17
2022-08-30T14:40:51.895Z,1.77
2022-08-30T14:43:18.010Z,1.80
2022-08-30T14:45:44.673Z,1.92
2022-08-30T14:48:11.495Z,2.20
2022-08-30T14:50:38.981Z,2.05
2022-08-30T14:53:06.659Z,1.77
2022-08-30T14:55:34.794Z,1.70
2022-08-30T14:58:01.424Z,1.63
2022-08-30T15:00:28.055Z,1.92
2022-08-30T15:02:54.183Z,2.40
2022-08-30T15:05:20.351Z,2.17
2022-08-30T15:07:50.199Z,1.98
2022-08-30T15:10:19.367Z,1.80
2022-08-30T15:12:51.705Z,1.67
2022-08-30T15:15:21.143Z,2.15
2022-08-30T15:17:48.442Z,1.85
2022-08-30T15:20:18.185Z,1.75
2022-08-30T15:22:46.178Z,1.90
2022-08-30T15:25:13.169Z,1.60
2022-08-30T15:27:39.307Z,1.77
2022-08-30T15:30:06.997Z,2.00
2022-08-30T15:32:33.076Z,1.77
2022-08-30T15:34:59.579Z,1.63
2022-08-30T15:37:26.514Z,1.40
2022-08-30T15:39:52.949Z,1.70
2022-08-30T15:42:19.639Z,1.55
2022-08-30T15:44:49.960Z,1.23
2022-08-30T15:47:31.304Z,1.40
2022-08-30T15:50:02.594Z,1.40
2022-08-30T15:52:30.141Z,1.27
2022-08-30T15:54:56.685Z,1.30
2022-08-30T15:57:22.867Z,1.20
2022-08-30T15:59:50.257Z,1.35
2022-08-30T16:02:16.822Z,1.25
2022-08-30T16:04:43.555Z,1.20
2022-08-30T16:07:09.773Z,1.33
2022-08-30T16:09:38.011Z,1.13
2022-08-30T16:12:05.993Z,1.30
2022-08-30T16:14:33.054Z,1.25
2022-08-30T16:16:59.722Z,1.20
2022-08-30T16:19:26.001Z,1.02
2022-08-30T16:21:52.242Z,1.10
2022-08-30T16:24:22.736Z,1.33
2022-08-30T16:26:49.341Z,1.00
2022-08-30T16:29:15.513Z,1.02
2022-08-30T16:31:43.574Z,1.20
2022-08-30T16:34:11.951Z,1.27
2022-08-30T16:36:38.966Z,1.13
2022-08-30T16:39:08.434Z,1.33
2022-08-30T16:41:35.759Z,1.25
2022-08-30T16:44:03.668Z,1.23
2022-08-30T16:46:33.294Z,1.10
2022-08-30T16:49:04.585Z,1.23
2022-08-30T16:51:33.541Z,1.20
2022-08-30T16:54:04.215Z,1.10
2022-08-30T16:56:31.996Z,1.48
2022-08-30T16:59:02.857Z,1.30
2022-08-30T17:01:31.520Z,1.40
2022-08-30T17:03:58.297Z,1.67
2022-08-30T17:06:24.479Z,1.38
2022-08-30T17:11:38.141Z,1.40
2022-08-30T17:14:06.983Z,1.50
2022-08-30T17:16:35.257Z,1.35
2022-08-30T17:19:04.866Z,1.60
2022-08-30T17:21:31.579Z,1.45
2022-08-30T17:24:02.574Z,1.60
2022-08-30T17:26:34.027Z,1.42
2022-08-30T17:29:00.546Z,1.30
2022-08-30T17:31:29.588Z,1.45
2022-08-30T17:34:01.205Z,1.20
2022-08-30T17:36:35.496Z,1.38
2022-08-30T17:39:10.618Z,1.30
2022-08-30T17:41:45.571Z,1.33
2022-08-30T17:44:27.759Z,1.40
2022-08-30T17:46:56.199Z,1.25
2022-08-30T17:49:23.609Z,1.30
2022-08-30T17:51:55.625Z,1.00
2022-08-30T17:54:24.393Z,1.30
2022-08-30T17:56:52.373Z,1.40
2022-08-30T17:59:18.995Z,1.20
2022-08-30T18:01:52.454Z,1.10
2022-08-30T18:04:20.430Z,1.20
2022-08-30T18:06:47.409Z,1.02
2022-08-30T18:09:13.766Z,1.20
2022-08-30T18:11:40.765Z,1.30
2022-08-30T18:14:08.329Z,1.33
2022-08-30T18:16:38.720Z,1.25
2022-08-30T18:19:13.890Z,1.10
2022-08-30T18:21:40.110Z,1.23
2022-08-30T18:24:06.930Z,1.30
2022-08-30T18:26:34.986Z,1.30
2022-08-30T18:29:01.927Z,1.05
2022-08-30T18:31:28.485Z,1.30
2022-08-30T18:33:56.698Z,1.17
2022-08-30T18:36:25.613Z,1.17
2022-08-30T18:38:51.699Z,1.10
2022-08-30T18:41:19.353Z,1.17
2022-08-30T18:43:45.573Z,1.25
2022-08-30T18:46:14.224Z,1.13
2022-08-30T18:48:41.278Z,1.23
2022-08-30T18:51:12.713Z,1.13
2022-08-30T18:53:39.442Z,1.10
2022-08-30T18:56:07.970Z,1.20
2022-08-30T18:58:34.312Z,1.02
2022-08-30T19:01:03.495Z,1.10
2022-08-30T19:03:33.672Z,1.13
2022-08-30T19:06:05.304Z,1.20
2022-08-30T19:08:34.151Z,1.20
2022-08-30T19:11:04.832Z,1.20
2022-08-30T19:13:34.025Z,1.20
2022-08-30T19:16:01.421Z,1.20
2022-08-30T19:18:27.574Z,1.30
2022-08-30T19:20:53.784Z,1.10
2022-08-30T19:23:23.300Z,1.15
2022-08-30T19:25:52.670Z,1.00
2022-08-30T19:28:20.059Z,1.13
2022-08-30T19:30:46.402Z,1.10
2022-08-30T19:33:12.704Z,1.05
2022-08-30T19:35:38.817Z,1.20
2022-08-30T19:38:05.331Z,1.00
2022-08-30T19:40:31.542Z,1.17
2022-08-30T19:42:58.353Z,1.10
2022-08-30T19:45:24.741Z,1.35
2022-08-30T19:47:52.491Z,1.00
2022-08-30T19:50:19.961Z,1.10
2022-08-30T19:52:53.345Z,1.08
2022-08-30T19:55:23.814Z,1.00
2022-08-30T19:57:55.219Z,1.10
2022-08-30T20:00:22.820Z,0.93
2022-08-30T20:02:50.788Z,1.02
2022-08-30T20:05:17.611Z,1.00
2022-08-30T20:07:43.815Z,0.80
2022-08-30T20:10:12.946Z,0.80
2022-08-30T20:12:39.413Z,1.00
2022-08-30T20:15:13.870Z,1.00
2022-08-30T20:18:02.771Z,1.08
2022-08-30T20:20:28.925Z,0.90
2022-08-30T20:22:55.112Z,1.10
2022-08-30T20:24:23.331Z,1.50
2022-08-30T20:25:21.816Z,0.95
2022-08-30T20:27:48.547Z,1.08
2022-08-30T20:30:16.434Z,1.02
2022-08-30T20:32:46.314Z,0.98
2022-08-30T20:35:17.087Z,0.90
2022-08-30T20:37:43.817Z,0.93
2022-08-30T20:40:15.509Z,1.10
2022-08-30T20:42:44.793Z,0.90
2022-08-30T20:45:13.508Z,0.82
2022-08-30T20:47:40.892Z,1.00
2022-08-30T20:50:13.590Z,1.00
2022-08-30T20:52:40.611Z,0.93
2022-08-30T20:55:07.646Z,1.00
2022-08-30T20:57:33.852Z,1.10
2022-08-30T21:00:00.301Z,1.13
2022-08-30T21:02:27.089Z,0.82
2022-08-30T21:04:53.531Z,0.77
2022-08-30T21:07:19.657Z,1.17
2022-08-30T21:09:45.761Z,0.85
2022-08-30T21:12:11.857Z,1.00
2022-08-30T21:14:37.933Z,0.75
2022-08-30T21:17:04.163Z,0.88
2022-08-30T21:19:30.269Z,1.00
2022-08-30T21:21:56.391Z,0.90
2022-08-30T21:24:22.471Z,0.95
2022-08-30T21:26:48.746Z,0.90
2022-08-30T21:29:14.841Z,1.00
2022-08-30T21:31:40.994Z,1.00
2022-08-30T21:34:07.162Z,0.90
2022-08-30T21:36:46.901Z,0.80
2022-08-30T21:39:19.913Z,0.80
2022-08-30T21:41:47.641Z,1.02
2022-08-30T21:44:16.928Z,0.75
2022-08-30T21:46:43.865Z,1.02
2022-08-30T21:49:12.781Z,0.77
2022-08-30T21:51:41.652Z,1.00
2022-08-30T21:54:10.285Z,1.00
2022-08-30T21:56:38.647Z,0.70
2022-08-30T21:59:06.254Z,0.90
2022-08-30T22:01:33.513Z,0.95
2022-08-30T22:04:03.026Z,1.00
2022-08-30T22:06:31.952Z,0.73
2022-08-30T22:09:00.621Z,0.80
2022-08-30T22:11:28.239Z,0.70
2022-08-30T22:13:55.164Z,0.80
2022-08-30T22:16:22.935Z,0.90
2022-08-30T22:18:50.301Z,0.82
2022-08-30T22:21:19.450Z,0.90
2022-08-30T22:23:45.654Z,0.90
2022-08-30T22:26:13.708Z,1.00
2022-08-30T22:28:40.216Z,0.93
2022-08-30T22:31:09.041Z,0.80
2022-08-30T22:33:35.903Z,0.90
2022-08-30T22:36:18.370Z,0.90
2022-08-30T22:38:44.545Z,0.90
2022-08-30T22:41:14.552Z,0.88
2022-08-30T22:43:41.383Z,0.90
2022-08-30T22:46:08.052Z,0.85
2022-08-30T22:48:35.421Z,1.00
2022-08-30T22:51:02.168Z,0.80
2022-08-30T22:53:28.521Z,0.90
2022-08-30T22:55:54.644Z,0.80
2022-08-30T22:58:20.783Z,0.80
2022-08-30T23:00:54.563Z,0.80
2022-08-30T23:03:21.636Z,0.98
2022-08-30T23:05:47.771Z,0.85
2022-08-30T23:08:13.861Z,0.85
2022-08-30T23:10:40.868Z,0.90
2022-08-30T23:13:07.397Z,0.90
2022-08-30T23:15:33.904Z,0.70
2022-08-30T23:18:00.181Z,0.82
2022-08-30T23:20:26.322Z,0.70
2022-08-30T23:22:58.250Z,0.77
2022-08-30T23:25:51.924Z,0.80
2022-08-30T23:28:38.810Z,0.68
2022-08-30T23:31:41.290Z,0.80
2022-08-30T23:34:26.190Z,0.77
2022-08-30T23:37:11.577Z,0.80
2022-08-30T23:39:56.314Z,0.77
2022-08-30T23:42:41.269Z,0.88
2022-08-30T23:45:27.958Z,0.90
2022-08-30T23:48:12.789Z,0.63
2022-08-30T23:50:58.233Z,0.68
2022-08-30T23:53:43.869Z,0.80
2022-08-30T23:56:29.669Z,0.77
2022-08-30T23:59:14.459Z,0.77
